Lewistown, MT (59457)

12:53 AM MDT on August 30, 2014 (GMT -0600)
3rd Ave S Lewistown | Change Station
CLOSE
Current Station
Personal Weather Station
Location: Lewistown, MT
Elevation: 3927 ft
Nearby Weather Stations

Elev 3927 ft 47.06 °N, 109.42 °W | Updated 48 minutes ago

Clear
Clear
62.5 °F
Feels Like 62.5 °F
N
0.0
Wind Variable Wind from East
Gusts 2.0 mph

Today
High -- | Low -- °F
--% Chance of Precip.
Yesterday
High -- | Low -- °F
Precip. -- in
6:34 AM 8:01 PM
Waxing Crescent, 19% visible
Pressure 29.77 in
Visibility 10.0 miles
Clouds Clear
Dew Point 53 °F
Humidity 72%
Rainfall 0.00 in
Snow Depth Not available.
UV 0 out of 12
Pollen 7.80 out of 12
Air Quality Not available.
Flu Activity Not available.
METAR KLWT 300554Z AUTO 10007KT 10SM CLR 16/11 A2986 RMK AO2 SLP079 T01610106 10250 20161 58008

More Conditions Fewer Conditions

Pressure 29.77 in
Visibility 10.0 miles
Clouds Clear
Dew Point 53 °F
Humidity 72%
Rainfall 0.00 in
Snow Depth Not available.
UV 0 out of 12
Pollen 7.80 out of 12
Air Quality Not available.
Flu Activity Not available.
METAR KLWT 300554Z AUTO 10007KT 10SM CLR 16/11 A2986 RMK AO2 SLP079 T01610106 10250 20161 58008

More Conditions Fewer Conditions

10-Day Weather Forecast

Almanac

Astronomy

Aug. 30, 2014 Rise Set
Actual Time 6:34 AM MDT 8:01 PM MDT
Civil Twilight 6:02 AM MDT 8:32 PM MDT
Nautical Twilight 5:24 AM MDT 9:11 PM MDT
Astronomical Twilight 4:42 AM MDT 9:52 PM MDT
Moon 11:46 AM MDT 10:15 PM MDT
Length of Visible Light 14h 29m
Length of Day
13h 26m
Tomorrow will be 3m 15s shorter.
Waxing Crescent, 19% of the Moon is Illuminated
Today
Waxing Crescent
Sep 2
First Quarter
Sep 8
Full
Sep 15
Last Quarter
Sep 24
New

Today's Extremes

State Highs State Lows

Community

WunderPhotos

Upload Photos

1,748,462 photos uploaded!

Nearby

Snow Depth

Station Depth Elevation
Crystal Lake 0 in 6050 ft
Spur Park 0 in 8100 ft
Onion Park 0 in 7410 ft
Porcupine 1 in 6500 ft
Pickfoot Creek 0 in 6650 ft

Earthquake Activity

City Distance Mag. Time & Date
No recent earthquake activity has been reported nearby.
Minimum magnitude displayed is 2.5.

Coastal Water Temperatures

Place Temperature
No Stations Reporting

Nearby Weather Stations